sensor_id;sensor_type;location;lat;lon;timestamp;P1;durP1;ratioP1;P2;durP2;ratioP2
71715;SDS011;59568;52.128;5.434;2023-06-14T00:01:59;4.88;;;1.50;;
71715;SDS011;59568;52.128;5.434;2023-06-14T00:04:26;4.20;;;1.60;;
71715;SDS011;59568;52.128;5.434;2023-06-14T00:06:53;9.70;;;1.55;;
71715;SDS011;59568;52.128;5.434;2023-06-14T00:09:20;7.00;;;1.42;;
71715;SDS011;59568;52.128;5.434;2023-06-14T00:11:47;5.88;;;1.27;;
71715;SDS011;59568;52.128;5.434;2023-06-14T00:14:13;3.22;;;1.33;;
71715;SDS011;59568;52.128;5.434;2023-06-14T00:16:41;3.93;;;1.47;;
71715;SDS011;59568;52.128;5.434;2023-06-14T00:19:09;4.80;;;1.52;;
71715;SDS011;59568;52.128;5.434;2023-06-14T00:21:37;3.55;;;1.50;;
71715;SDS011;59568;52.128;5.434;2023-06-14T00:24:04;5.13;;;1.20;;
71715;SDS011;59568;52.128;5.434;2023-06-14T00:26:32;4.68;;;1.30;;
71715;SDS011;59568;52.128;5.434;2023-06-14T00:28:58;2.60;;;1.17;;
71715;SDS011;59568;52.128;5.434;2023-06-14T00:31:25;3.15;;;1.40;;
71715;SDS011;59568;52.128;5.434;2023-06-14T00:33:53;6.25;;;1.40;;
71715;SDS011;59568;52.128;5.434;2023-06-14T00:36:20;5.95;;;1.27;;
71715;SDS011;59568;52.128;5.434;2023-06-14T00:38:47;2.78;;;1.33;;
71715;SDS011;59568;52.128;5.434;2023-06-14T00:41:13;7.60;;;1.57;;
71715;SDS011;59568;52.128;5.434;2023-06-14T00:43:40;3.60;;;1.20;;
71715;SDS011;59568;52.128;5.434;2023-06-14T00:46:07;4.63;;;1.30;;
71715;SDS011;59568;52.128;5.434;2023-06-14T00:48:34;2.10;;;1.17;;
71715;SDS011;59568;52.128;5.434;2023-06-14T00:51:03;4.32;;;1.63;;
71715;SDS011;59568;52.128;5.434;2023-06-14T00:53:30;2.67;;;1.30;;
71715;SDS011;59568;52.128;5.434;2023-06-14T00:56:00;4.53;;;1.30;;
71715;SDS011;59568;52.128;5.434;2023-06-14T00:58:27;7.65;;;1.60;;
71715;SDS011;59568;52.128;5.434;2023-06-14T01:00:55;5.70;;;1.23;;
71715;SDS011;59568;52.128;5.434;2023-06-14T01:03:22;4.80;;;1.13;;
71715;SDS011;59568;52.128;5.434;2023-06-14T01:05:53;2.23;;;1.00;;
71715;SDS011;59568;52.128;5.434;2023-06-14T01:08:32;2.92;;;1.02;;
71715;SDS011;59568;52.128;5.434;2023-06-14T01:11:16;3.97;;;1.48;;
71715;SDS011;59568;52.128;5.434;2023-06-14T01:13:49;4.30;;;1.30;;
71715;SDS011;59568;52.128;5.434;2023-06-14T01:16:18;8.27;;;1.55;;
71715;SDS011;59568;52.128;5.434;2023-06-14T01:18:46;4.50;;;1.40;;
71715;SDS011;59568;52.128;5.434;2023-06-14T01:21:21;3.95;;;1.25;;
71715;SDS011;59568;52.128;5.434;2023-06-14T01:23:50;3.10;;;1.30;;
71715;SDS011;59568;52.128;5.434;2023-06-14T01:26:22;4.43;;;1.35;;
71715;SDS011;59568;52.128;5.434;2023-06-14T01:28:49;5.40;;;1.63;;
71715;SDS011;59568;52.128;5.434;2023-06-14T01:31:20;2.93;;;1.00;;
71715;SDS011;59568;52.128;5.434;2023-06-14T01:33:51;4.03;;;1.27;;
71715;SDS011;59568;52.128;5.434;2023-06-14T01:36:19;4.60;;;1.25;;
71715;SDS011;59568;52.128;5.434;2023-06-14T01:38:47;5.03;;;1.40;;
71715;SDS011;59568;52.128;5.434;2023-06-14T01:41:17;3.28;;;1.45;;
71715;SDS011;59568;52.128;5.434;2023-06-14T01:43:47;7.00;;;0.97;;
71715;SDS011;59568;52.128;5.434;2023-06-14T01:46:16;5.75;;;1.50;;
71715;SDS011;59568;52.128;5.434;2023-06-14T01:48:44;6.40;;;1.77;;
71715;SDS011;59568;52.128;5.434;2023-06-14T01:51:11;4.47;;;1.23;;
71715;SDS011;59568;52.128;5.434;2023-06-14T01:53:38;4.07;;;1.70;;
71715;SDS011;59568;52.128;5.434;2023-06-14T01:56:05;2.17;;;1.10;;
71715;SDS011;59568;52.128;5.434;2023-06-14T01:58:33;3.28;;;1.15;;
71715;SDS011;59568;52.128;5.434;2023-06-14T02:00:59;6.10;;;1.50;;
71715;SDS011;59568;52.128;5.434;2023-06-14T02:03:27;2.95;;;1.17;;
71715;SDS011;59568;52.128;5.434;2023-06-14T02:05:54;1.95;;;1.00;;
71715;SDS011;59568;52.128;5.434;2023-06-14T02:08:22;6.90;;;1.43;;
71715;SDS011;59568;52.128;5.434;2023-06-14T02:10:50;4.03;;;1.20;;
71715;SDS011;59568;52.128;5.434;2023-06-14T02:13:17;3.55;;;1.30;;
71715;SDS011;59568;52.128;5.434;2023-06-14T02:15:44;8.18;;;1.25;;
71715;SDS011;59568;52.128;5.434;2023-06-14T02:18:12;3.33;;;1.40;;
71715;SDS011;59568;52.128;5.434;2023-06-14T02:20:39;2.70;;;1.07;;
71715;SDS011;59568;52.128;5.434;2023-06-14T02:23:06;3.45;;;1.38;;
71715;SDS011;59568;52.128;5.434;2023-06-14T02:25:34;4.35;;;1.20;;
71715;SDS011;59568;52.128;5.434;2023-06-14T02:28:01;3.42;;;1.20;;
71715;SDS011;59568;52.128;5.434;2023-06-14T02:30:28;3.53;;;1.40;;
71715;SDS011;59568;52.128;5.434;2023-06-14T02:32:56;4.97;;;1.10;;
71715;SDS011;59568;52.128;5.434;2023-06-14T02:35:23;2.65;;;1.10;;
71715;SDS011;59568;52.128;5.434;2023-06-14T02:37:53;3.92;;;1.40;;
71715;SDS011;59568;52.128;5.434;2023-06-14T02:40:20;5.20;;;1.40;;
71715;SDS011;59568;52.128;5.434;2023-06-14T02:42:47;3.60;;;1.10;;
71715;SDS011;59568;52.128;5.434;2023-06-14T02:45:14;5.10;;;1.30;;
71715;SDS011;59568;52.128;5.434;2023-06-14T02:47:41;4.40;;;1.40;;
71715;SDS011;59568;52.128;5.434;2023-06-14T02:50:08;3.15;;;1.50;;
71715;SDS011;59568;52.128;5.434;2023-06-14T02:52:35;3.70;;;1.15;;
71715;SDS011;59568;52.128;5.434;2023-06-14T02:55:02;4.15;;;1.30;;
71715;SDS011;59568;52.128;5.434;2023-06-14T02:57:29;4.80;;;1.43;;
71715;SDS011;59568;52.128;5.434;2023-06-14T02:59:56;3.15;;;1.15;;
71715;SDS011;59568;52.128;5.434;2023-06-14T03:02:23;2.97;;;1.33;;
71715;SDS011;59568;52.128;5.434;2023-06-14T03:04:50;3.15;;;1.17;;
71715;SDS011;59568;52.128;5.434;2023-06-14T03:07:17;6.82;;;1.33;;
71715;SDS011;59568;52.128;5.434;2023-06-14T03:09:48;4.40;;;1.00;;
71715;SDS011;59568;52.128;5.434;2023-06-14T03:12:15;3.22;;;1.10;;
71715;SDS011;59568;52.128;5.434;2023-06-14T03:14:42;3.45;;;1.20;;
71715;SDS011;59568;52.128;5.434;2023-06-14T03:17:09;3.80;;;1.02;;
71715;SDS011;59568;52.128;5.434;2023-06-14T03:19:37;3.58;;;2.03;;
71715;SDS011;59568;52.128;5.434;2023-06-14T03:22:04;3.67;;;0.90;;
71715;SDS011;59568;52.128;5.434;2023-06-14T03:24:31;4.82;;;1.60;;
71715;SDS011;59568;52.128;5.434;2023-06-14T03:27:03;3.55;;;1.15;;
71715;SDS011;59568;52.128;5.434;2023-06-14T03:29:30;2.20;;;1.00;;
71715;SDS011;59568;52.128;5.434;2023-06-14T03:32:01;4.80;;;1.30;;
71715;SDS011;59568;52.128;5.434;2023-06-14T03:34:28;4.03;;;1.07;;
71715;SDS011;59568;52.128;5.434;2023-06-14T03:36:55;3.03;;;1.35;;
71715;SDS011;59568;52.128;5.434;2023-06-14T03:39:22;4.05;;;1.27;;
71715;SDS011;59568;52.128;5.434;2023-06-14T03:41:49;4.97;;;1.17;;
71715;SDS011;59568;52.128;5.434;2023-06-14T03:44:17;2.58;;;1.45;;
71715;SDS011;59568;52.128;5.434;2023-06-14T03:46:45;4.53;;;1.50;;
71715;SDS011;59568;52.128;5.434;2023-06-14T03:49:13;3.05;;;1.38;;
71715;SDS011;59568;52.128;5.434;2023-06-14T03:51:40;8.90;;;1.20;;
71715;SDS011;59568;52.128;5.434;2023-06-14T03:54:07;9.25;;;1.20;;
71715;SDS011;59568;52.128;5.434;2023-06-14T03:56:37;3.85;;;1.70;;
71715;SDS011;59568;52.128;5.434;2023-06-14T03:59:04;3.00;;;1.20;;
71715;SDS011;59568;52.128;5.434;2023-06-14T04:01:31;4.63;;;1.23;;
71715;SDS011;59568;52.128;5.434;2023-06-14T04:04:00;6.18;;;1.67;;
71715;SDS011;59568;52.128;5.434;2023-06-14T04:06:27;7.68;;;1.65;;
71715;SDS011;59568;52.128;5.434;2023-06-14T04:08:59;6.68;;;1.80;;
71715;SDS011;59568;52.128;5.434;2023-06-14T04:11:29;3.57;;;1.30;;
71715;SDS011;59568;52.128;5.434;2023-06-14T04:13:57;7.63;;;1.77;;
71715;SDS011;59568;52.128;5.434;2023-06-14T04:16:25;5.20;;;1.20;;
71715;SDS011;59568;52.128;5.434;2023-06-14T04:18:52;6.20;;;1.40;;
71715;SDS011;59568;52.128;5.434;2023-06-14T04:21:19;5.90;;;1.38;;
71715;SDS011;59568;52.128;5.434;2023-06-14T04:23:46;6.27;;;1.20;;
71715;SDS011;59568;52.128;5.434;2023-06-14T04:26:13;3.30;;;1.13;;
71715;SDS011;59568;52.128;5.434;2023-06-14T04:28:41;3.45;;;1.05;;
71715;SDS011;59568;52.128;5.434;2023-06-14T04:31:07;6.47;;;1.27;;
71715;SDS011;59568;52.128;5.434;2023-06-14T04:33:36;4.97;;;1.40;;
71715;SDS011;59568;52.128;5.434;2023-06-14T04:36:10;3.60;;;1.50;;
71715;SDS011;59568;52.128;5.434;2023-06-14T04:38:40;4.85;;;1.13;;
71715;SDS011;59568;52.128;5.434;2023-06-14T04:41:07;3.60;;;1.70;;
71715;SDS011;59568;52.128;5.434;2023-06-14T04:43:38;8.50;;;1.90;;
71715;SDS011;59568;52.128;5.434;2023-06-14T04:46:05;5.57;;;1.40;;
71715;SDS011;59568;52.128;5.434;2023-06-14T04:48:37;4.33;;;1.63;;
71715;SDS011;59568;52.128;5.434;2023-06-14T04:51:07;2.58;;;1.40;;
71715;SDS011;59568;52.128;5.434;2023-06-14T04:53:35;4.60;;;1.10;;
71715;SDS011;59568;52.128;5.434;2023-06-14T04:56:02;5.10;;;1.38;;
71715;SDS011;59568;52.128;5.434;2023-06-14T04:58:30;4.70;;;1.67;;
71715;SDS011;59568;52.128;5.434;2023-06-14T05:00:58;3.23;;;1.30;;
71715;SDS011;59568;52.128;5.434;2023-06-14T05:03:26;6.03;;;1.40;;
71715;SDS011;59568;52.128;5.434;2023-06-14T05:05:54;3.67;;;1.45;;
71715;SDS011;59568;52.128;5.434;2023-06-14T05:08:21;4.20;;;1.33;;
71715;SDS011;59568;52.128;5.434;2023-06-14T05:10:52;2.65;;;1.17;;
71715;SDS011;59568;52.128;5.434;2023-06-14T05:13:19;5.90;;;1.53;;
71715;SDS011;59568;52.128;5.434;2023-06-14T05:15:47;6.35;;;1.50;;
71715;SDS011;59568;52.128;5.434;2023-06-14T05:18:15;3.33;;;1.58;;
71715;SDS011;59568;52.128;5.434;2023-06-14T05:20:42;6.07;;;1.30;;
71715;SDS011;59568;52.128;5.434;2023-06-14T05:23:09;5.72;;;1.63;;
71715;SDS011;59568;52.128;5.434;2023-06-14T05:25:45;5.83;;;1.57;;
71715;SDS011;59568;52.128;5.434;2023-06-14T05:28:13;4.70;;;1.58;;
71715;SDS011;59568;52.128;5.434;2023-06-14T05:30:41;5.25;;;1.67;;
71715;SDS011;59568;52.128;5.434;2023-06-14T05:33:07;3.17;;;1.23;;
71715;SDS011;59568;52.128;5.434;2023-06-14T05:35:35;6.40;;;1.42;;
71715;SDS011;59568;52.128;5.434;2023-06-14T05:38:01;3.70;;;1.20;;
71715;SDS011;59568;52.128;5.434;2023-06-14T05:40:28;3.70;;;1.17;;
71715;SDS011;59568;52.128;5.434;2023-06-14T05:42:55;5.18;;;1.35;;
71715;SDS011;59568;52.128;5.434;2023-06-14T05:45:22;3.63;;;1.10;;
71715;SDS011;59568;52.128;5.434;2023-06-14T05:47:49;3.72;;;1.27;;
71715;SDS011;59568;52.128;5.434;2023-06-14T05:50:17;4.93;;;1.40;;
71715;SDS011;59568;52.128;5.434;2023-06-14T05:52:44;4.28;;;1.50;;
71715;SDS011;59568;52.128;5.434;2023-06-14T05:55:11;5.75;;;1.50;;
71715;SDS011;59568;52.128;5.434;2023-06-14T05:57:39;4.07;;;1.30;;
71715;SDS011;59568;52.128;5.434;2023-06-14T06:00:07;4.20;;;1.17;;
71715;SDS011;59568;52.128;5.434;2023-06-14T06:02:41;4.50;;;1.53;;
71715;SDS011;59568;52.128;5.434;2023-06-14T06:05:12;2.53;;;1.30;;
71715;SDS011;59568;52.128;5.434;2023-06-14T06:07:39;3.47;;;1.45;;
71715;SDS011;59568;52.128;5.434;2023-06-14T06:10:07;3.80;;;1.30;;
71715;SDS011;59568;52.128;5.434;2023-06-14T06:12:34;4.18;;;1.38;;
71715;SDS011;59568;52.128;5.434;2023-06-14T06:15:01;3.97;;;1.70;;
71715;SDS011;59568;52.128;5.434;2023-06-14T06:17:28;4.15;;;1.42;;
71715;SDS011;59568;52.128;5.434;2023-06-14T06:20:11;4.95;;;1.50;;
71715;SDS011;59568;52.128;5.434;2023-06-14T06:22:38;4.72;;;1.40;;
71715;SDS011;59568;52.128;5.434;2023-06-14T06:25:05;3.25;;;1.40;;
71715;SDS011;59568;52.128;5.434;2023-06-14T06:27:33;4.00;;;1.40;;
71715;SDS011;59568;52.128;5.434;2023-06-14T06:30:00;3.92;;;1.33;;
71715;SDS011;59568;52.128;5.434;2023-06-14T06:32:27;3.53;;;1.40;;
71715;SDS011;59568;52.128;5.434;2023-06-14T06:34:54;3.15;;;1.25;;
71715;SDS011;59568;52.128;5.434;2023-06-14T06:37:21;4.18;;;1.45;;
71715;SDS011;59568;52.128;5.434;2023-06-14T06:39:51;3.97;;;1.10;;
71715;SDS011;59568;52.128;5.434;2023-06-14T06:42:18;6.30;;;1.42;;
71715;SDS011;59568;52.128;5.434;2023-06-14T06:44:44;3.83;;;1.60;;
71715;SDS011;59568;52.128;5.434;2023-06-14T06:47:11;3.88;;;1.70;;
71715;SDS011;59568;52.128;5.434;2023-06-14T06:49:38;3.80;;;1.40;;
71715;SDS011;59568;52.128;5.434;2023-06-14T06:52:06;2.37;;;1.17;;
71715;SDS011;59568;52.128;5.434;2023-06-14T06:54:33;5.15;;;1.65;;
71715;SDS011;59568;52.128;5.434;2023-06-14T06:57:01;2.63;;;1.40;;
71715;SDS011;59568;52.128;5.434;2023-06-14T06:59:28;5.07;;;1.90;;
71715;SDS011;59568;52.128;5.434;2023-06-14T07:01:55;4.43;;;1.33;;
71715;SDS011;59568;52.128;5.434;2023-06-14T07:04:22;7.40;;;1.57;;
71715;SDS011;59568;52.128;5.434;2023-06-14T07:06:49;4.47;;;1.70;;
71715;SDS011;59568;52.128;5.434;2023-06-14T07:09:16;5.65;;;1.50;;
71715;SDS011;59568;52.128;5.434;2023-06-14T07:11:43;7.55;;;1.67;;
71715;SDS011;59568;52.128;5.434;2023-06-14T07:14:11;4.93;;;1.52;;
71715;SDS011;59568;52.128;5.434;2023-06-14T07:16:38;4.60;;;1.40;;
71715;SDS011;59568;52.128;5.434;2023-06-14T07:19:05;4.03;;;1.25;;
71715;SDS011;59568;52.128;5.434;2023-06-14T07:21:32;4.25;;;1.50;;
71715;SDS011;59568;52.128;5.434;2023-06-14T07:23:59;5.13;;;1.50;;
71715;SDS011;59568;52.128;5.434;2023-06-14T07:26:27;5.40;;;1.48;;
71715;SDS011;59568;52.128;5.434;2023-06-14T07:28:54;2.50;;;1.20;;
71715;SDS011;59568;52.128;5.434;2023-06-14T07:31:21;4.68;;;0.98;;
71715;SDS011;59568;52.128;5.434;2023-06-14T07:33:48;2.63;;;1.20;;
71715;SDS011;59568;52.128;5.434;2023-06-14T07:36:15;2.17;;;0.70;;
71715;SDS011;59568;52.128;5.434;2023-06-14T07:38:42;4.30;;;1.23;;
71715;SDS011;59568;52.128;5.434;2023-06-14T07:41:09;3.93;;;1.10;;
71715;SDS011;59568;52.128;5.434;2023-06-14T07:43:36;3.45;;;1.17;;
71715;SDS011;59568;52.128;5.434;2023-06-14T07:46:03;2.75;;;0.85;;
71715;SDS011;59568;52.128;5.434;2023-06-14T07:48:33;2.75;;;1.35;;
71715;SDS011;59568;52.128;5.434;2023-06-14T07:51:01;3.60;;;1.00;;
71715;SDS011;59568;52.128;5.434;2023-06-14T07:53:28;1.70;;;0.70;;
71715;SDS011;59568;52.128;5.434;2023-06-14T07:55:55;2.65;;;0.90;;
71715;SDS011;59568;52.128;5.434;2023-06-14T07:58:22;2.17;;;0.95;;
71715;SDS011;59568;52.128;5.434;2023-06-14T08:00:49;6.22;;;1.02;;
71715;SDS011;59568;52.128;5.434;2023-06-14T08:03:17;2.28;;;0.80;;
71715;SDS011;59568;52.128;5.434;2023-06-14T08:05:45;4.80;;;0.93;;
71715;SDS011;59568;52.128;5.434;2023-06-14T08:08:12;3.95;;;1.10;;
71715;SDS011;59568;52.128;5.434;2023-06-14T08:10:39;3.33;;;0.73;;
71715;SDS011;59568;52.128;5.434;2023-06-14T08:13:06;4.97;;;0.65;;
71715;SDS011;59568;52.128;5.434;2023-06-14T08:15:33;3.05;;;0.60;;
71715;SDS011;59568;52.128;5.434;2023-06-14T08:18:00;3.00;;;0.50;;
71715;SDS011;59568;52.128;5.434;2023-06-14T08:20:27;4.90;;;0.73;;
71715;SDS011;59568;52.128;5.434;2023-06-14T08:22:56;2.25;;;0.50;;
71715;SDS011;59568;52.128;5.434;2023-06-14T08:25:24;1.83;;;0.55;;
71715;SDS011;59568;52.128;5.434;2023-06-14T08:27:52;3.83;;;0.47;;
71715;SDS011;59568;52.128;5.434;2023-06-14T08:30:19;2.70;;;0.60;;
71715;SDS011;59568;52.128;5.434;2023-06-14T08:32:46;2.97;;;0.60;;
71715;SDS011;59568;52.128;5.434;2023-06-14T08:35:21;2.15;;;0.50;;
71715;SDS011;59568;52.128;5.434;2023-06-14T08:37:49;2.72;;;0.60;;
71715;SDS011;59568;52.128;5.434;2023-06-14T08:40:20;3.15;;;0.60;;
71715;SDS011;59568;52.128;5.434;2023-06-14T08:42:50;2.57;;;0.53;;
71715;SDS011;59568;52.128;5.434;2023-06-14T08:45:19;1.67;;;0.65;;
71715;SDS011;59568;52.128;5.434;2023-06-14T08:47:53;1.88;;;0.38;;
71715;SDS011;59568;52.128;5.434;2023-06-14T08:50:25;1.35;;;0.40;;
71715;SDS011;59568;52.128;5.434;2023-06-14T08:52:58;4.70;;;0.60;;
71715;SDS011;59568;52.128;5.434;2023-06-14T08:55:31;2.57;;;0.47;;
71715;SDS011;59568;52.128;5.434;2023-06-14T08:58:02;3.67;;;0.57;;
71715;SDS011;59568;52.128;5.434;2023-06-14T09:00:30;1.58;;;0.60;;
71715;SDS011;59568;52.128;5.434;2023-06-14T09:02:59;2.65;;;0.50;;
71715;SDS011;59568;52.128;5.434;2023-06-14T09:05:27;2.88;;;0.45;;
71715;SDS011;59568;52.128;5.434;2023-06-14T09:07:55;2.40;;;0.70;;
71715;SDS011;59568;52.128;5.434;2023-06-14T09:10:31;2.35;;;0.60;;
71715;SDS011;59568;52.128;5.434;2023-06-14T09:13:05;1.25;;;0.35;;
71715;SDS011;59568;52.128;5.434;2023-06-14T09:15:32;3.15;;;0.50;;
71715;SDS011;59568;52.128;5.434;2023-06-14T09:18:01;1.67;;;0.52;;
71715;SDS011;59568;52.128;5.434;2023-06-14T09:20:29;1.50;;;0.33;;
71715;SDS011;59568;52.128;5.434;2023-06-14T09:22:57;1.83;;;0.35;;
71715;SDS011;59568;52.128;5.434;2023-06-14T09:25:24;2.72;;;0.52;;
71715;SDS011;59568;52.128;5.434;2023-06-14T09:28:08;1.40;;;0.40;;
71715;SDS011;59568;52.128;5.434;2023-06-14T09:30:38;3.40;;;0.55;;
71715;SDS011;59568;52.128;5.434;2023-06-14T09:33:06;3.10;;;0.57;;
71715;SDS011;59568;52.128;5.434;2023-06-14T09:35:34;2.30;;;0.38;;
71715;SDS011;59568;52.128;5.434;2023-06-14T09:38:01;3.05;;;0.43;;
71715;SDS011;59568;52.128;5.434;2023-06-14T09:40:28;2.55;;;0.73;;
71715;SDS011;59568;52.128;5.434;2023-06-14T09:42:55;1.40;;;0.40;;
71715;SDS011;59568;52.128;5.434;2023-06-14T09:45:25;1.37;;;0.40;;
71715;SDS011;59568;52.128;5.434;2023-06-14T09:47:56;1.27;;;0.38;;
71715;SDS011;59568;52.128;5.434;2023-06-14T09:50:27;3.00;;;0.40;;
71715;SDS011;59568;52.128;5.434;2023-06-14T09:52:55;2.15;;;0.60;;
71715;SDS011;59568;52.128;5.434;2023-06-14T09:55:27;3.15;;;0.50;;
71715;SDS011;59568;52.128;5.434;2023-06-14T09:57:57;1.00;;;0.30;;
71715;SDS011;59568;52.128;5.434;2023-06-14T10:00:26;4.28;;;0.50;;
71715;SDS011;59568;52.128;5.434;2023-06-14T10:02:54;4.22;;;0.50;;
71715;SDS011;59568;52.128;5.434;2023-06-14T10:05:27;1.25;;;0.40;;
71715;SDS011;59568;52.128;5.434;2023-06-14T10:08:04;3.20;;;0.60;;
71715;SDS011;59568;52.128;5.434;2023-06-14T10:10:35;2.23;;;0.40;;
71715;SDS011;59568;52.128;5.434;2023-06-14T10:13:06;7.30;;;0.60;;
71715;SDS011;59568;52.128;5.434;2023-06-14T10:18:33;2.17;;;0.40;;
71715;SDS011;59568;52.128;5.434;2023-06-14T10:23:50;1.83;;;0.40;;
71715;SDS011;59568;52.128;5.434;2023-06-14T10:26:22;3.10;;;0.68;;
71715;SDS011;59568;52.128;5.434;2023-06-14T10:29:00;2.13;;;1.15;;
71715;SDS011;59568;52.128;5.434;2023-06-14T10:31:39;1.40;;;0.50;;
71715;SDS011;59568;52.128;5.434;2023-06-14T10:34:08;3.47;;;0.40;;
71715;SDS011;59568;52.128;5.434;2023-06-14T10:36:36;1.23;;;0.40;;
71715;SDS011;59568;52.128;5.434;2023-06-14T10:41:35;2.42;;;0.60;;
71715;SDS011;59568;52.128;5.434;2023-06-14T10:46:40;3.67;;;0.60;;
71715;SDS011;59568;52.128;5.434;2023-06-14T10:49:12;1.23;;;0.30;;
71715;SDS011;59568;52.128;5.434;2023-06-14T10:51:44;2.00;;;0.60;;
71715;SDS011;59568;52.128;5.434;2023-06-14T10:54:16;1.77;;;0.40;;
71715;SDS011;59568;52.128;5.434;2023-06-14T10:56:50;1.48;;;0.30;;
71715;SDS011;59568;52.128;5.434;2023-06-14T10:59:19;1.08;;;0.40;;
71715;SDS011;59568;52.128;5.434;2023-06-14T11:04:47;1.58;;;0.30;;
71715;SDS011;59568;52.128;5.434;2023-06-14T11:07:31;1.27;;;0.40;;
71715;SDS011;59568;52.128;5.434;2023-06-14T11:13:03;5.70;;;0.40;;
71715;SDS011;59568;52.128;5.434;2023-06-14T11:15:30;1.13;;;0.40;;
71715;SDS011;59568;52.128;5.434;2023-06-14T11:18:04;2.33;;;0.50;;
71715;SDS011;59568;52.128;5.434;2023-06-14T11:20:34;1.27;;;0.40;;
71715;SDS011;59568;52.128;5.434;2023-06-14T11:23:04;2.13;;;0.35;;
71715;SDS011;59568;52.128;5.434;2023-06-14T11:25:31;3.25;;;0.38;;
71715;SDS011;59568;52.128;5.434;2023-06-14T11:27:58;1.60;;;0.40;;
71715;SDS011;59568;52.128;5.434;2023-06-14T11:30:25;3.75;;;0.70;;
71715;SDS011;59568;52.128;5.434;2023-06-14T11:32:53;1.98;;;0.50;;
71715;SDS011;59568;52.128;5.434;2023-06-14T11:35:24;3.17;;;0.50;;
71715;SDS011;59568;52.128;5.434;2023-06-14T11:37:53;2.05;;;0.40;;
71715;SDS011;59568;52.128;5.434;2023-06-14T11:40:27;2.90;;;0.57;;
71715;SDS011;59568;52.128;5.434;2023-06-14T11:43:00;1.40;;;0.63;;
71715;SDS011;59568;52.128;5.434;2023-06-14T11:45:29;2.45;;;0.43;;
71715;SDS011;59568;52.128;5.434;2023-06-14T11:47:57;1.40;;;0.30;;
71715;SDS011;59568;52.128;5.434;2023-06-14T11:50:25;2.03;;;0.50;;
71715;SDS011;59568;52.128;5.434;2023-06-14T11:55:21;5.88;;;0.50;;
71715;SDS011;59568;52.128;5.434;2023-06-14T11:57:49;2.50;;;0.32;;
71715;SDS011;59568;52.128;5.434;2023-06-14T12:00:16;2.17;;;0.40;;
71715;SDS011;59568;52.128;5.434;2023-06-14T12:02:52;2.35;;;0.40;;
71715;SDS011;59568;52.128;5.434;2023-06-14T12:05:24;2.73;;;0.50;;
71715;SDS011;59568;52.128;5.434;2023-06-14T12:08:02;3.38;;;0.50;;
71715;SDS011;59568;52.128;5.434;2023-06-14T12:10:40;2.97;;;0.55;;
71715;SDS011;59568;52.128;5.434;2023-06-14T12:13:11;1.08;;;0.38;;
71715;SDS011;59568;52.128;5.434;2023-06-14T12:15:38;2.88;;;0.40;;
71715;SDS011;59568;52.128;5.434;2023-06-14T12:18:05;3.27;;;0.40;;
71715;SDS011;59568;52.128;5.434;2023-06-14T12:20:35;2.35;;;0.60;;
71715;SDS011;59568;52.128;5.434;2023-06-14T12:23:03;2.17;;;0.60;;
71715;SDS011;59568;52.128;5.434;2023-06-14T12:25:31;1.23;;;0.40;;
71715;SDS011;59568;52.128;5.434;2023-06-14T12:28:10;1.33;;;0.40;;
71715;SDS011;59568;52.128;5.434;2023-06-14T12:30:37;1.27;;;0.40;;
71715;SDS011;59568;52.128;5.434;2023-06-14T12:33:04;3.65;;;0.70;;
71715;SDS011;59568;52.128;5.434;2023-06-14T12:35:32;1.63;;;0.40;;
71715;SDS011;59568;52.128;5.434;2023-06-14T12:37:59;2.25;;;0.40;;
71715;SDS011;59568;52.128;5.434;2023-06-14T12:40:27;2.88;;;0.80;;
71715;SDS011;59568;52.128;5.434;2023-06-14T12:42:53;2.33;;;0.40;;
71715;SDS011;59568;52.128;5.434;2023-06-14T12:45:20;1.55;;;0.60;;
71715;SDS011;59568;52.128;5.434;2023-06-14T12:47:47;2.25;;;0.88;;
71715;SDS011;59568;52.128;5.434;2023-06-14T12:50:14;1.10;;;0.45;;
71715;SDS011;59568;52.128;5.434;2023-06-14T12:52:42;4.70;;;0.50;;
71715;SDS011;59568;52.128;5.434;2023-06-14T12:55:09;2.17;;;0.40;;
71715;SDS011;59568;52.128;5.434;2023-06-14T12:57:36;1.65;;;0.40;;
71715;SDS011;59568;52.128;5.434;2023-06-14T13:00:04;3.42;;;0.40;;
71715;SDS011;59568;52.128;5.434;2023-06-14T13:02:34;2.67;;;0.47;;
71715;SDS011;59568;52.128;5.434;2023-06-14T13:05:01;1.92;;;0.38;;
71715;SDS011;59568;52.128;5.434;2023-06-14T13:07:30;4.33;;;0.50;;
71715;SDS011;59568;52.128;5.434;2023-06-14T13:09:57;1.63;;;0.50;;
71715;SDS011;59568;52.128;5.434;2023-06-14T13:12:24;2.70;;;0.82;;
71715;SDS011;59568;52.128;5.434;2023-06-14T13:14:51;3.80;;;0.47;;
71715;SDS011;59568;52.128;5.434;2023-06-14T13:17:18;5.57;;;0.63;;
71715;SDS011;59568;52.128;5.434;2023-06-14T13:19:45;1.50;;;0.50;;
71715;SDS011;59568;52.128;5.434;2023-06-14T13:22:11;2.20;;;0.40;;
71715;SDS011;59568;52.128;5.434;2023-06-14T13:24:38;1.30;;;0.38;;
71715;SDS011;59568;52.128;5.434;2023-06-14T13:27:05;1.63;;;0.40;;
71715;SDS011;59568;52.128;5.434;2023-06-14T13:29:33;2.10;;;0.32;;
71715;SDS011;59568;52.128;5.434;2023-06-14T13:32:03;1.87;;;0.60;;
71715;SDS011;59568;52.128;5.434;2023-06-14T13:34:30;1.17;;;0.47;;
71715;SDS011;59568;52.128;5.434;2023-06-14T13:36:57;1.45;;;0.45;;
71715;SDS011;59568;52.128;5.434;2023-06-14T13:39:25;1.83;;;0.40;;
71715;SDS011;59568;52.128;5.434;2023-06-14T13:41:52;2.22;;;0.50;;
71715;SDS011;59568;52.128;5.434;2023-06-14T13:44:19;4.90;;;0.43;;
71715;SDS011;59568;52.128;5.434;2023-06-14T13:46:48;1.33;;;0.30;;
71715;SDS011;59568;52.128;5.434;2023-06-14T13:49:15;3.22;;;0.60;;
71715;SDS011;59568;52.128;5.434;2023-06-14T13:51:42;1.83;;;0.47;;
71715;SDS011;59568;52.128;5.434;2023-06-14T13:54:11;1.73;;;0.45;;
71715;SDS011;59568;52.128;5.434;2023-06-14T13:56:39;2.10;;;0.57;;
71715;SDS011;59568;52.128;5.434;2023-06-14T13:59:06;2.47;;;0.40;;
71715;SDS011;59568;52.128;5.434;2023-06-14T14:01:33;2.38;;;0.40;;
71715;SDS011;59568;52.128;5.434;2023-06-14T14:04:00;1.58;;;0.43;;
71715;SDS011;59568;52.128;5.434;2023-06-14T14:06:27;2.97;;;0.50;;
71715;SDS011;59568;52.128;5.434;2023-06-14T14:08:54;1.60;;;0.33;;
71715;SDS011;59568;52.128;5.434;2023-06-14T14:11:21;1.17;;;0.30;;
71715;SDS011;59568;52.128;5.434;2023-06-14T14:13:47;1.92;;;0.40;;
71715;SDS011;59568;52.128;5.434;2023-06-14T14:16:22;2.22;;;0.30;;
71715;SDS011;59568;52.128;5.434;2023-06-14T14:18:49;4.38;;;0.40;;
71715;SDS011;59568;52.128;5.434;2023-06-14T14:21:16;1.70;;;0.30;;
71715;SDS011;59568;52.128;5.434;2023-06-14T14:23:43;2.10;;;0.50;;
71715;SDS011;59568;52.128;5.434;2023-06-14T14:26:12;1.75;;;0.25;;
71715;SDS011;59568;52.128;5.434;2023-06-14T14:28:39;2.25;;;0.30;;
71715;SDS011;59568;52.128;5.434;2023-06-14T14:31:06;2.15;;;0.40;;
71715;SDS011;59568;52.128;5.434;2023-06-14T14:33:33;1.07;;;0.27;;
71715;SDS011;59568;52.128;5.434;2023-06-14T14:36:01;1.42;;;0.40;;
71715;SDS011;59568;52.128;5.434;2023-06-14T14:38:30;1.48;;;0.40;;
71715;SDS011;59568;52.128;5.434;2023-06-14T14:40:58;2.70;;;0.32;;
71715;SDS011;59568;52.128;5.434;2023-06-14T14:43:25;2.33;;;0.40;;
71715;SDS011;59568;52.128;5.434;2023-06-14T14:45:53;1.20;;;0.30;;
71715;SDS011;59568;52.128;5.434;2023-06-14T14:48:20;3.28;;;0.30;;
71715;SDS011;59568;52.128;5.434;2023-06-14T14:50:47;2.30;;;0.50;;
71715;SDS011;59568;52.128;5.434;2023-06-14T14:53:14;3.33;;;0.43;;
71715;SDS011;59568;52.128;5.434;2023-06-14T14:55:44;1.20;;;0.30;;
71715;SDS011;59568;52.128;5.434;2023-06-14T14:58:12;1.27;;;0.20;;
71715;SDS011;59568;52.128;5.434;2023-06-14T15:00:46;2.50;;;0.50;;
71715;SDS011;59568;52.128;5.434;2023-06-14T15:03:14;3.20;;;0.40;;
71715;SDS011;59568;52.128;5.434;2023-06-14T15:05:41;1.45;;;0.50;;
71715;SDS011;59568;52.128;5.434;2023-06-14T15:08:09;1.20;;;0.40;;
71715;SDS011;59568;52.128;5.434;2023-06-14T15:10:39;2.47;;;0.40;;
71715;SDS011;59568;52.128;5.434;2023-06-14T15:13:08;1.45;;;0.40;;
71715;SDS011;59568;52.128;5.434;2023-06-14T15:15:35;2.25;;;0.43;;